CheckWX is a tool to help pilots better visualize weather data.  It is not intended as a substitute for an official pre-flight weather briefing.

05:21:29 UTC

KMZH METAR
Moose Lake Carlton County Airport
Moose Lake, Minnesota, USA
Current

26 mins ago

KMZH 200455Z AUTO 00000KT 10SM CLR M14/M18 A3026 RMK AO2
Observed
Feb-20 @ 04:55 UTC
Visibility
16,093 meters
Flight Rules
VFR
Cloud Levels
  • Clear skies
Temperature
-14°C / 7°F
Dewpoint
-18°C / -0°F
Humidity
72%
Altimeter
30.26" Hg
Pressure
1024.72 hPa
Previous

46 mins ago

KMZH 200435Z AUTO 00000KT 10SM CLR M13/M17 A3027 RMK AO2
Observed
Feb-20 @ 04:35 UTC
Visibility
16,093 meters
Flight Rules
VFR
Cloud Levels
  • Clear skies
Temperature
-13°C / 9°F
Dewpoint
-17°C / 1°F
Humidity
72%
Altimeter
30.27" Hg
Pressure
1025.02 hPa
Previous

1 hour ago

KMZH 200415Z AUTO 00000KT 10SM CLR M13/M17 A3028 RMK AO2
Observed
Feb-20 @ 04:15 UTC
Visibility
16,093 meters
Flight Rules
VFR
Cloud Levels
  • Clear skies
Temperature
-13°C / 9°F
Dewpoint
-17°C / 1°F
Humidity
72%
Altimeter
30.28" Hg
Pressure
1025.42 hPa